createdAt,value
2018-04-29T00:01:52.985Z,5.20
2018-04-29T00:04:20.420Z,4.80
2018-04-29T00:06:48.622Z,4.87
2018-04-29T00:09:16.083Z,5.27
2018-04-29T00:11:44.292Z,5.30
2018-04-29T00:14:11.743Z,5.47
2018-04-29T00:16:39.183Z,5.77
2018-04-29T00:19:06.649Z,6.23
2018-04-29T00:21:34.865Z,6.67
2018-04-29T00:24:02.302Z,5.53
2018-04-29T00:26:29.761Z,6.63
2018-04-29T00:28:57.234Z,6.43
2018-04-29T00:31:24.668Z,6.77
2018-04-29T00:33:52.119Z,6.73
2018-04-29T00:36:19.572Z,6.60
2018-04-29T00:38:47.788Z,6.60
2018-04-29T00:41:15.242Z,6.40
2018-04-29T00:43:42.691Z,5.93
2018-04-29T00:46:10.908Z,6.00
2018-04-29T00:48:38.348Z,6.60
2018-04-29T00:51:06.577Z,5.73
2018-04-29T00:53:34.033Z,6.97
2018-04-29T00:56:01.490Z,6.97
2018-04-29T00:58:28.944Z,6.77
2018-04-29T01:00:57.568Z,7.30
2018-04-29T01:03:25.023Z,7.37
2018-04-29T01:05:52.558Z,8.00
2018-04-29T01:08:20.683Z,6.27
2018-04-29T01:10:48.145Z,7.60
2018-04-29T01:13:15.593Z,6.33
2018-04-29T01:15:43.811Z,7.97
2018-04-29T01:18:11.296Z,7.33
2018-04-29T01:20:38.761Z,7.87
2018-04-29T01:23:06.213Z,6.90
2018-04-29T01:25:33.676Z,6.57
2018-04-29T01:28:01.115Z,6.13
2018-04-29T01:30:28.570Z,6.57
2018-04-29T01:32:56.012Z,6.60
2018-04-29T01:35:23.536Z,7.17
2018-04-29T01:37:50.911Z,6.20
2018-04-29T01:40:18.359Z,7.03
2018-04-29T01:42:46.588Z,6.80
2018-04-29T01:45:14.049Z,6.60
2018-04-29T01:47:41.483Z,6.57
2018-04-29T01:50:09.704Z,6.40
2018-04-29T01:52:37.140Z,7.13
2018-04-29T01:55:05.365Z,6.07
2018-04-29T01:57:32.807Z,7.23
2018-04-29T02:00:01.033Z,5.80
2018-04-29T02:02:28.484Z,6.43
2018-04-29T02:04:55.957Z,6.43
2018-04-29T02:07:23.408Z,6.40
2018-04-29T02:09:51.629Z,7.30
2018-04-29T02:12:19.086Z,7.50
2018-04-29T02:14:46.541Z,6.80
2018-04-29T02:17:13.979Z,6.70
2018-04-29T02:19:42.213Z,6.50
2018-04-29T02:22:09.657Z,6.90
2018-04-29T02:24:37.129Z,6.37
2018-04-29T02:27:04.567Z,7.73
2018-04-29T02:29:32.007Z,8.33
2018-04-29T02:31:59.479Z,7.97
2018-04-29T02:34:26.915Z,8.10
2018-04-29T02:36:54.370Z,8.10
2018-04-29T02:39:21.825Z,8.27
2018-04-29T02:41:50.057Z,7.40
2018-04-29T02:44:17.509Z,8.33
2018-04-29T02:46:44.960Z,7.70
2018-04-29T02:49:13.163Z,7.83
2018-04-29T02:51:40.624Z,8.50
2018-04-29T02:54:08.080Z,7.40
2018-04-29T02:56:35.535Z,7.80
2018-04-29T02:59:03.757Z,8.00
2018-04-29T03:01:31.216Z,7.93
2018-04-29T03:03:58.666Z,7.60
2018-04-29T03:06:26.908Z,8.37
2018-04-29T03:08:54.359Z,6.80
2018-04-29T03:11:21.817Z,7.23
2018-04-29T03:13:49.332Z,8.17
2018-04-29T03:16:16.792Z,7.43
2018-04-29T03:18:44.226Z,7.90
2018-04-29T03:21:11.689Z,8.97
2018-04-29T03:23:39.146Z,9.50
2018-04-29T03:26:06.612Z,9.77
2018-04-29T03:28:34.828Z,8.67
2018-04-29T03:31:02.297Z,8.90
2018-04-29T03:33:29.745Z,9.17
2018-04-29T03:35:57.208Z,9.53
2018-04-29T03:38:25.434Z,10.23
2018-04-29T03:40:52.895Z,9.60
2018-04-29T03:43:20.349Z,10.07
2018-04-29T03:45:47.820Z,10.20
2018-04-29T03:48:15.284Z,8.93
2018-04-29T03:50:42.741Z,8.10
2018-04-29T03:53:10.192Z,10.20
2018-04-29T03:55:38.420Z,9.07
2018-04-29T03:58:17.836Z,9.90
2018-04-29T04:00:58.048Z,9.67
2018-04-29T04:03:37.476Z,10.13
2018-04-29T04:06:04.944Z,9.47
2018-04-29T04:08:32.396Z,10.23
2018-04-29T04:11:00.628Z,9.83
2018-04-29T04:13:28.080Z,10.53
2018-04-29T04:15:55.565Z,11.03
2018-04-29T04:18:23.029Z,11.20
2018-04-29T04:20:50.511Z,12.27
2018-04-29T04:23:17.968Z,12.47
2018-04-29T04:25:45.440Z,11.07
2018-04-29T04:28:12.901Z,11.63
2018-04-29T04:30:40.373Z,12.60
2018-04-29T04:33:07.829Z,11.80
2018-04-29T04:35:35.300Z,11.80
2018-04-29T04:38:02.758Z,12.60
2018-04-29T04:40:30.229Z,11.47
2018-04-29T04:42:57.684Z,12.33
2018-04-29T04:45:25.157Z,10.60
2018-04-29T04:47:52.620Z,12.53
2018-04-29T04:50:20.853Z,11.87
2018-04-29T04:52:48.308Z,12.23
2018-04-29T04:55:15.760Z,11.67
2018-04-29T04:57:43.241Z,12.00
2018-04-29T05:00:10.752Z,12.43
2018-04-29T05:02:38.214Z,11.83
2018-04-29T05:05:05.672Z,12.17
2018-04-29T05:07:33.148Z,13.17
2018-04-29T05:10:00.613Z,13.17
2018-04-29T05:12:28.161Z,12.27
2018-04-29T05:14:55.629Z,12.30
2018-04-29T05:17:23.108Z,12.03
2018-04-29T05:19:50.557Z,11.67
2018-04-29T05:22:18.034Z,12.70
2018-04-29T05:24:45.481Z,12.07
2018-04-29T05:27:13.704Z,11.23
2018-04-29T05:29:41.156Z,13.53
2018-04-29T05:32:08.623Z,13.20
2018-04-29T05:34:36.076Z,14.50
2018-04-29T05:37:03.540Z,14.83
2018-04-29T05:39:31.760Z,16.30
2018-04-29T05:41:59.226Z,17.90
2018-04-29T05:44:26.685Z,21.43
2018-04-29T05:46:54.158Z,20.17
2018-04-29T05:49:21.618Z,18.37
2018-04-29T05:51:49.081Z,20.83
2018-04-29T05:54:16.536Z,19.43
2018-04-29T05:56:44.772Z,23.00
2018-04-29T05:59:12.225Z,22.47
2018-04-29T06:01:39.720Z,30.37
2018-04-29T06:04:07.173Z,24.87
2018-04-29T06:06:34.697Z,23.03
2018-04-29T06:09:02.092Z,23.20
2018-04-29T06:11:29.556Z,24.17
2018-04-29T06:13:57.050Z,27.10
2018-04-29T06:16:24.484Z,23.20
2018-04-29T06:18:52.704Z,27.40
2018-04-29T06:21:20.168Z,26.87
2018-04-29T06:23:49.400Z,30.23
2018-04-29T06:26:16.914Z,31.23
2018-04-29T06:28:45.218Z,30.40
2018-04-29T06:31:12.625Z,26.03
2018-04-29T06:33:40.072Z,26.27
2018-04-29T06:36:07.536Z,27.87
2018-04-29T06:38:34.997Z,23.43
2018-04-29T06:41:02.457Z,24.23
2018-04-29T06:43:29.917Z,25.50
2018-04-29T06:45:58.148Z,26.37
2018-04-29T06:48:25.674Z,30.20
2018-04-29T06:50:53.993Z,23.00
2018-04-29T06:53:21.586Z,27.00
2018-04-29T06:55:48.997Z,24.90
2018-04-29T06:58:17.319Z,21.63
2018-04-29T07:00:44.794Z,22.83
2018-04-29T07:03:12.242Z,22.63
2018-04-29T07:05:39.738Z,24.83
2018-04-29T07:08:07.274Z,19.77
2018-04-29T07:10:34.661Z,19.07
2018-04-29T07:13:02.122Z,26.30
2018-04-29T07:15:29.596Z,24.00
2018-04-29T07:17:57.060Z,27.17
2018-04-29T07:20:24.517Z,24.30
2018-04-29T07:22:52.761Z,22.33
2018-04-29T07:25:20.226Z,22.80
2018-04-29T07:27:47.688Z,22.60
2018-04-29T07:30:15.145Z,21.57
2018-04-29T07:32:42.613Z,20.43
2018-04-29T07:35:10.065Z,17.87
2018-04-29T07:37:37.532Z,23.10
2018-04-29T07:40:05.105Z,20.30
2018-04-29T07:42:32.496Z,25.17
2018-04-29T07:44:59.948Z,20.00
2018-04-29T07:47:27.414Z,18.70
2018-04-29T07:49:54.864Z,18.83
2018-04-29T07:52:22.419Z,20.20
2018-04-29T07:54:50.551Z,19.73
2018-04-29T07:57:18.021Z,23.50
2018-04-29T07:59:45.472Z,19.63
2018-04-29T08:02:12.941Z,25.73
2018-04-29T08:04:40.395Z,23.90
2018-04-29T08:07:08.625Z,22.93
2018-04-29T08:09:36.076Z,20.57
2018-04-29T08:12:03.549Z,25.43
2018-04-29T08:14:31.001Z,20.60
2018-04-29T08:16:58.475Z,19.93
2018-04-29T08:19:25.934Z,22.40
2018-04-29T08:21:53.397Z,19.87
2018-04-29T08:24:20.845Z,21.40
2018-04-29T08:26:49.072Z,23.17
2018-04-29T08:29:16.532Z,20.97
2018-04-29T08:31:43.998Z,20.67
2018-04-29T08:34:11.453Z,23.07
2018-04-29T08:36:39.684Z,18.43
2018-04-29T08:39:07.132Z,14.57
2018-04-29T08:41:34.600Z,16.90
2018-04-29T08:44:02.044Z,16.63
2018-04-29T08:46:30.273Z,14.33
2018-04-29T08:48:57.723Z,14.30
2018-04-29T08:51:25.197Z,11.77
2018-04-29T08:53:52.648Z,13.43
2018-04-29T08:56:20.153Z,12.00
2018-04-29T08:58:47.622Z,13.30
2018-04-29T09:01:15.072Z,14.00
2018-04-29T09:03:42.684Z,15.00
2018-04-29T09:06:10.037Z,14.40
2018-04-29T09:08:37.505Z,14.13
2018-04-29T09:11:04.957Z,15.77
2018-04-29T09:13:32.420Z,15.73
2018-04-29T09:15:59.873Z,18.27
2018-04-29T09:18:27.356Z,15.43
2018-04-29T09:20:54.817Z,16.00
2018-04-29T09:23:22.290Z,13.67
2018-04-29T09:25:49.740Z,14.30
2018-04-29T09:28:17.205Z,15.27
2018-04-29T09:30:45.425Z,16.27
2018-04-29T09:33:12.892Z,15.17
2018-04-29T09:35:40.346Z,17.60
2018-04-29T09:38:07.809Z,15.53
2018-04-29T09:40:35.260Z,15.90
2018-04-29T09:43:03.493Z,15.47
2018-04-29T09:45:30.948Z,16.27
2018-04-29T09:47:58.409Z,15.90
2018-04-29T09:50:25.869Z,16.47
2018-04-29T09:52:53.332Z,13.77
2018-04-29T09:55:21.564Z,12.20
2018-04-29T09:57:49.025Z,10.77
2018-04-29T10:00:16.480Z,10.67
2018-04-29T10:02:48.000Z,10.30
2018-04-29T10:05:15.436Z,10.30
2018-04-29T10:07:42.909Z,10.10
2018-04-29T10:10:10.369Z,10.07
2018-04-29T10:12:37.825Z,9.73
2018-04-29T10:15:05.285Z,11.10
2018-04-29T10:17:32.752Z,10.77
2018-04-29T10:20:00.204Z,11.40
2018-04-29T10:22:27.662Z,10.37
2018-04-29T10:24:55.880Z,9.93
2018-04-29T10:27:23.338Z,10.47
2018-04-29T10:29:50.797Z,10.87
2018-04-29T10:32:18.309Z,9.90
2018-04-29T10:34:45.761Z,10.73
2018-04-29T10:37:13.457Z,11.03
2018-04-29T10:39:40.924Z,11.00
2018-04-29T10:42:08.480Z,9.57
2018-04-29T10:44:35.940Z,11.63
2018-04-29T10:47:03.393Z,10.77
2018-04-29T10:49:30.868Z,10.43
2018-04-29T10:51:58.322Z,10.33
2018-04-29T10:54:26.565Z,9.33
2018-04-29T10:56:54.025Z,10.20
2018-04-29T10:59:21.480Z,9.90
2018-04-29T11:01:48.931Z,9.80
2018-04-29T11:04:16.472Z,10.57
2018-04-29T11:06:43.852Z,10.37
2018-04-29T11:09:12.080Z,9.47
2018-04-29T11:11:39.559Z,9.20
2018-04-29T11:14:06.997Z,9.20
2018-04-29T11:16:34.445Z,10.40
2018-04-29T11:19:02.669Z,9.77
2018-04-29T11:21:30.118Z,9.70
2018-04-29T11:23:57.587Z,9.93
2018-04-29T11:26:25.072Z,8.70
2018-04-29T11:28:52.533Z,9.63
2018-04-29T11:31:19.985Z,9.27
2018-04-29T11:33:47.461Z,10.13
2018-04-29T11:36:14.902Z,9.60
2018-04-29T11:38:43.128Z,8.67
2018-04-29T11:41:10.572Z,8.67
2018-04-29T11:43:38.800Z,9.80
2018-04-29T11:46:06.244Z,9.87
2018-04-29T11:48:33.706Z,10.00
2018-04-29T11:51:01.160Z,8.73
2018-04-29T11:53:29.380Z,9.80
2018-04-29T11:55:56.837Z,10.13
2018-04-29T11:58:24.316Z,9.50
2018-04-29T12:00:51.782Z,8.77
2018-04-29T12:03:19.242Z,9.40
2018-04-29T12:05:46.701Z,9.53
2018-04-29T12:08:14.171Z,9.60
2018-04-29T12:10:41.626Z,9.33
2018-04-29T12:13:09.857Z,10.13
2018-04-29T12:15:37.302Z,8.63
2018-04-29T12:18:04.773Z,8.63
2018-04-29T12:20:33.011Z,8.73
2018-04-29T12:23:00.474Z,10.30
2018-04-29T12:25:27.927Z,8.67
2018-04-29T12:27:55.385Z,8.57
2018-04-29T12:30:22.845Z,9.07
2018-04-29T12:32:50.304Z,8.10
2018-04-29T12:35:17.752Z,7.67
2018-04-29T12:37:45.980Z,8.33
2018-04-29T12:40:13.432Z,9.30
2018-04-29T12:42:40.892Z,8.30
2018-04-29T12:45:08.337Z,6.50
2018-04-29T12:47:36.562Z,8.70
2018-04-29T12:50:04.086Z,8.70
2018-04-29T12:52:31.549Z,7.97
2018-04-29T12:54:59.005Z,8.47
2018-04-29T12:57:26.457Z,6.90
2018-04-29T12:59:54.001Z,8.33
2018-04-29T13:02:21.473Z,8.50
2018-04-29T13:04:48.913Z,7.93
2018-04-29T13:07:17.136Z,8.37
2018-04-29T13:09:44.600Z,8.57
2018-04-29T13:12:12.041Z,7.80
2018-04-29T13:14:40.292Z,6.97
2018-04-29T13:17:07.741Z,6.93
2018-04-29T13:19:35.205Z,7.63
2018-04-29T13:22:02.672Z,6.10
2018-04-29T13:24:30.148Z,5.30
2018-04-29T13:26:57.589Z,5.00
2018-04-29T13:29:25.056Z,5.63
2018-04-29T13:31:52.501Z,4.63
2018-04-29T13:34:20.731Z,5.53
2018-04-29T13:36:48.201Z,4.57
2018-04-29T13:39:15.660Z,5.40
2018-04-29T13:41:43.314Z,5.20
2018-04-29T13:44:11.544Z,4.80
2018-04-29T13:46:38.993Z,4.60
2018-04-29T13:49:06.473Z,4.57
2018-04-29T13:51:33.920Z,5.00
2018-04-29T13:54:01.385Z,4.23
2018-04-29T13:56:28.915Z,4.73
2018-04-29T13:58:57.069Z,5.23
2018-04-29T14:01:24.513Z,5.00
2018-04-29T14:03:51.972Z,4.47
2018-04-29T14:06:19.416Z,4.80
2018-04-29T14:08:46.893Z,4.70
2018-04-29T14:11:15.115Z,5.03
2018-04-29T14:13:42.565Z,4.17
2018-04-29T14:16:10.082Z,4.43
2018-04-29T14:18:37.468Z,4.87
2018-04-29T14:21:04.922Z,4.53
2018-04-29T14:23:32.386Z,4.40
2018-04-29T14:25:59.840Z,4.63
2018-04-29T14:28:27.284Z,4.50
2018-04-29T14:30:54.746Z,4.80
2018-04-29T14:33:22.965Z,5.07
2018-04-29T14:35:50.420Z,4.53
2018-04-29T14:38:17.882Z,5.40
2018-04-29T14:40:45.332Z,4.77
2018-04-29T14:43:13.731Z,5.00
2018-04-29T14:45:41.211Z,5.07
2018-04-29T14:48:08.632Z,4.20
2018-04-29T14:50:36.084Z,15.53
2018-04-29T14:53:03.545Z,8.33
2018-04-29T14:55:31.100Z,7.07
2018-04-29T14:57:58.559Z,11.53
2018-04-29T15:00:26.022Z,21.70
2018-04-29T15:02:53.489Z,7.40
2018-04-29T15:05:20.945Z,10.30
2018-04-29T15:07:49.159Z,25.20
2018-04-29T15:10:16.620Z,26.13
2018-04-29T15:12:44.076Z,20.00
2018-04-29T15:15:11.796Z,16.50
2018-04-29T15:17:39.245Z,6.60
2018-04-29T15:20:06.705Z,6.67
2018-04-29T15:22:34.152Z,5.83
2018-04-29T15:25:02.377Z,5.77
2018-04-29T15:27:29.829Z,5.90
2018-04-29T15:29:57.331Z,5.27
2018-04-29T15:32:24.778Z,5.60
2018-04-29T15:34:52.241Z,5.13
2018-04-29T15:37:19.688Z,5.43
2018-04-29T15:39:47.149Z,5.37
2018-04-29T15:42:15.364Z,5.83
2018-04-29T15:44:43.752Z,5.77
2018-04-29T15:47:11.200Z,6.37
2018-04-29T15:49:39.445Z,5.23
2018-04-29T15:52:06.893Z,5.50
2018-04-29T15:54:34.360Z,5.43
2018-04-29T15:57:01.814Z,6.20
2018-04-29T15:59:29.308Z,5.30
2018-04-29T16:01:56.761Z,5.40
2018-04-29T16:04:24.225Z,5.10
2018-04-29T16:06:51.681Z,5.80
2018-04-29T16:09:19.145Z,5.33
2018-04-29T16:11:46.674Z,6.13
2018-04-29T16:14:14.828Z,4.83
2018-04-29T16:16:42.285Z,5.27
2018-04-29T16:19:09.744Z,4.87
2018-04-29T16:21:37.188Z,4.50
2018-04-29T16:24:05.416Z,4.90
2018-04-29T16:26:32.926Z,4.07
2018-04-29T16:29:01.901Z,5.00
2018-04-29T16:31:29.356Z,5.63
2018-04-29T16:33:56.813Z,4.83
2018-04-29T16:36:24.256Z,4.80
2018-04-29T16:38:52.495Z,5.30
2018-04-29T16:41:19.952Z,5.23
2018-04-29T16:43:47.401Z,4.67
2018-04-29T16:46:14.853Z,6.20
2018-04-29T16:48:43.078Z,5.90
2018-04-29T16:51:10.529Z,5.67
2018-04-29T16:53:37.991Z,5.50
2018-04-29T16:56:05.480Z,5.20
2018-04-29T16:58:32.936Z,5.07
2018-04-29T17:01:00.470Z,5.20
2018-04-29T17:03:27.926Z,5.00
2018-04-29T17:05:55.381Z,5.73
2018-04-29T17:08:22.840Z,5.77
2018-04-29T17:10:50.285Z,5.43
2018-04-29T17:13:17.744Z,5.87
2018-04-29T17:15:45.209Z,5.00
2018-04-29T17:18:12.673Z,5.63
2018-04-29T17:20:40.901Z,5.90
2018-04-29T17:23:08.477Z,6.20
2018-04-29T17:25:35.993Z,5.67
2018-04-29T17:28:04.209Z,6.17
2018-04-29T17:30:32.493Z,6.40
2018-04-29T17:33:00.693Z,6.13
2018-04-29T17:35:28.153Z,6.80
2018-04-29T17:37:55.605Z,6.63
2018-04-29T17:40:23.064Z,6.70
2018-04-29T17:42:51.280Z,6.00
2018-04-29T17:45:18.745Z,7.70
2018-04-29T17:47:46.229Z,6.10
2018-04-29T17:50:13.695Z,5.87
2018-04-29T17:52:41.148Z,5.97
2018-04-29T17:55:08.609Z,6.17
2018-04-29T17:57:36.085Z,5.83
2018-04-29T18:00:03.545Z,6.73
2018-04-29T18:02:31.756Z,6.53
2018-04-29T18:04:59.217Z,6.33
2018-04-29T18:07:26.664Z,5.70
2018-04-29T18:09:54.891Z,6.50
2018-04-29T18:12:22.477Z,6.57
2018-04-29T18:14:49.936Z,6.47
2018-04-29T18:17:17.385Z,6.30
2018-04-29T19:03:25.935Z,6.63
2018-04-29T19:05:59.160Z,7.00
2018-04-29T19:08:26.602Z,6.80
2018-04-29T19:10:54.060Z,6.73
2018-04-29T19:13:21.516Z,6.30
2018-04-29T19:15:48.976Z,6.50
2018-04-29T19:18:16.426Z,6.50
2018-04-29T19:20:44.651Z,6.63
2018-04-29T19:23:12.088Z,6.30
2018-04-29T19:25:40.412Z,6.13
2018-04-29T19:28:07.862Z,6.87
2018-04-29T19:30:35.321Z,7.07
2018-04-29T19:33:03.642Z,6.80
2018-04-29T19:35:31.090Z,7.60
2018-04-29T19:37:58.538Z,7.40
2018-04-29T19:40:26.760Z,7.20
2018-04-29T19:42:54.213Z,7.00
2018-04-29T19:45:21.673Z,6.87
2018-04-29T19:47:49.961Z,7.17
2018-04-29T19:50:17.432Z,7.03
2018-04-29T19:52:44.881Z,6.77
2018-04-29T19:55:13.126Z,6.77
2018-04-29T19:57:40.569Z,6.87
2018-04-29T20:00:08.033Z,7.00
2018-04-29T20:02:35.485Z,6.63
2018-04-29T20:05:03.704Z,6.70
2018-04-29T20:07:31.148Z,6.80
2018-04-29T20:09:58.611Z,6.93
2018-04-29T20:12:26.816Z,7.30
2018-04-29T20:14:54.282Z,7.83
2018-04-29T20:17:21.728Z,8.43
2018-04-29T20:19:49.948Z,6.73
2018-04-29T20:22:17.413Z,6.57
2018-04-29T20:24:45.621Z,6.80
2018-04-29T20:27:13.074Z,6.97
2018-04-29T20:29:40.537Z,7.00
2018-04-29T20:32:07.980Z,6.47
2018-04-29T20:34:36.202Z,7.10
2018-04-29T20:37:03.652Z,6.53
2018-04-29T20:39:31.109Z,6.83
2018-04-29T20:41:59.320Z,6.93
2018-04-29T20:44:26.778Z,6.93
2018-04-29T20:46:54.224Z,7.63
2018-04-29T20:49:22.450Z,7.20
2018-04-29T20:51:49.901Z,7.13
2018-04-29T20:54:17.360Z,6.70
2018-04-29T20:56:44.810Z,6.20
2018-04-29T20:59:13.042Z,6.23
2018-04-29T21:01:40.489Z,6.97
2018-04-29T21:04:07.937Z,6.60
2018-04-29T21:06:36.164Z,6.70
2018-04-29T21:09:03.619Z,6.77
2018-04-29T21:11:31.160Z,6.27
2018-04-29T21:13:59.381Z,6.13
2018-04-29T21:16:26.849Z,6.50
2018-04-29T21:18:54.288Z,6.77
2018-04-29T21:21:22.516Z,7.10
2018-04-29T21:23:49.960Z,7.20
2018-04-29T21:26:17.413Z,7.33
2018-04-29T21:28:45.631Z,7.27
2018-04-29T21:31:13.087Z,6.73
2018-04-29T21:33:40.550Z,7.30
2018-04-29T21:36:08.776Z,7.23
2018-04-29T21:38:36.230Z,7.03
2018-04-29T21:41:03.692Z,6.67
2018-04-29T21:43:31.149Z,6.60
2018-04-29T21:45:58.621Z,6.60
2018-04-29T21:48:26.846Z,6.27
2018-04-29T21:50:54.296Z,6.57
2018-04-29T21:53:21.757Z,6.53
2018-04-29T21:55:49.213Z,6.27
2018-04-29T21:58:16.669Z,6.60
2018-04-29T22:00:44.879Z,6.90
2018-04-29T22:03:12.340Z,6.57
2018-04-29T22:05:40.561Z,6.03
2018-04-29T22:08:08.016Z,6.60
2018-04-29T22:10:35.473Z,6.07
2018-04-29T22:13:02.920Z,6.07
2018-04-29T22:15:31.147Z,5.70
2018-04-29T22:17:58.593Z,5.73
2018-04-29T22:20:26.080Z,5.23
2018-04-29T22:22:53.533Z,4.90
2018-04-29T22:25:20.984Z,6.17
2018-04-29T22:27:48.436Z,5.90
2018-04-29T22:30:16.664Z,6.30
2018-04-29T22:32:44.108Z,6.10
2018-04-29T22:35:12.333Z,6.00
2018-04-29T22:37:39.781Z,6.07
2018-04-29T22:40:07.334Z,7.50
2018-04-29T22:42:35.550Z,6.33
2018-04-29T22:45:03.004Z,6.50
2018-04-29T22:47:30.509Z,6.00
2018-04-29T22:49:57.976Z,5.73
2018-04-29T22:52:25.417Z,6.37
2018-04-29T22:54:52.873Z,8.10
2018-04-29T22:57:21.090Z,7.33
2018-04-29T22:59:48.553Z,6.27
2018-04-29T23:02:16.001Z,7.17
2018-04-29T23:04:43.460Z,7.20
2018-04-29T23:07:11.677Z,6.73
2018-04-29T23:09:39.133Z,5.60
2018-04-29T23:12:06.621Z,4.87
2018-04-29T23:14:34.081Z,4.83
2018-04-29T23:17:01.538Z,4.90
2018-04-29T23:19:28.989Z,4.60
2018-04-29T23:21:57.220Z,4.30
2018-04-29T23:24:24.799Z,3.77
2018-04-29T23:26:52.256Z,3.43
2018-04-29T23:29:19.709Z,3.50
2018-04-29T23:31:47.157Z,3.60
2018-04-29T23:34:14.617Z,3.30
2018-04-29T23:36:42.828Z,3.80
2018-04-29T23:39:10.272Z,3.53
2018-04-29T23:41:38.496Z,3.60
2018-04-29T23:44:05.941Z,3.80
2018-04-29T23:46:33.409Z,3.50
2018-04-29T23:49:00.848Z,3.30
2018-04-29T23:51:29.083Z,3.17
2018-04-29T23:53:56.529Z,3.37
2018-04-29T23:56:24.757Z,2.73
2018-04-29T23:58:52.205Z,2.30
